sensor_id;sensor_type;location;lat;lon;timestamp;P1;durP1;ratioP1;P2;durP2;ratioP2
4547;SDS011;2286;51.570;7.090;2024-03-08T00:01:33;29.58;;;22.85;;
4547;SDS011;2286;51.570;7.090;2024-03-08T00:04:01;27.60;;;22.40;;
4547;SDS011;2286;51.570;7.090;2024-03-08T00:06:28;24.75;;;22.05;;
4547;SDS011;2286;51.570;7.090;2024-03-08T00:08:55;28.10;;;24.33;;
4547;SDS011;2286;51.570;7.090;2024-03-08T00:11:22;31.05;;;23.88;;
4547;SDS011;2286;51.570;7.090;2024-03-08T00:13:51;27.70;;;23.25;;
4547;SDS011;2286;51.570;7.090;2024-03-08T00:16:18;28.85;;;24.35;;
4547;SDS011;2286;51.570;7.090;2024-03-08T00:18:45;26.92;;;23.92;;
4547;SDS011;2286;51.570;7.090;2024-03-08T00:21:13;28.33;;;23.63;;
4547;SDS011;2286;51.570;7.090;2024-03-08T00:23:40;29.48;;;25.05;;
4547;SDS011;2286;51.570;7.090;2024-03-08T00:26:07;27.40;;;23.27;;
4547;SDS011;2286;51.570;7.090;2024-03-08T00:28:34;30.17;;;24.48;;
4547;SDS011;2286;51.570;7.090;2024-03-08T00:31:01;33.58;;;25.02;;
4547;SDS011;2286;51.570;7.090;2024-03-08T00:33:28;29.33;;;23.55;;
4547;SDS011;2286;51.570;7.090;2024-03-08T00:35:55;28.70;;;24.42;;
4547;SDS011;2286;51.570;7.090;2024-03-08T00:38:24;34.15;;;26.10;;
4547;SDS011;2286;51.570;7.090;2024-03-08T00:40:51;28.80;;;23.73;;
4547;SDS011;2286;51.570;7.090;2024-03-08T00:43:17;28.92;;;25.75;;
4547;SDS011;2286;51.570;7.090;2024-03-08T00:45:44;30.50;;;24.67;;
4547;SDS011;2286;51.570;7.090;2024-03-08T00:48:11;33.50;;;25.60;;
4547;SDS011;2286;51.570;7.090;2024-03-08T00:50:38;27.52;;;24.30;;
4547;SDS011;2286;51.570;7.090;2024-03-08T00:53:05;30.77;;;25.20;;
4547;SDS011;2286;51.570;7.090;2024-03-08T00:55:33;29.98;;;23.58;;
4547;SDS011;2286;51.570;7.090;2024-03-08T00:58:00;29.50;;;24.92;;
4547;SDS011;2286;51.570;7.090;2024-03-08T01:00:27;30.13;;;25.85;;
4547;SDS011;2286;51.570;7.090;2024-03-08T01:02:54;29.55;;;25.27;;
4547;SDS011;2286;51.570;7.090;2024-03-08T01:05:20;27.98;;;24.70;;
4547;SDS011;2286;51.570;7.090;2024-03-08T01:07:48;27.42;;;23.77;;
4547;SDS011;2286;51.570;7.090;2024-03-08T01:10:15;31.02;;;24.40;;
4547;SDS011;2286;51.570;7.090;2024-03-08T01:12:44;33.78;;;26.30;;
4547;SDS011;2286;51.570;7.090;2024-03-08T01:15:11;32.28;;;24.95;;
4547;SDS011;2286;51.570;7.090;2024-03-08T01:17:38;29.40;;;24.98;;
4547;SDS011;2286;51.570;7.090;2024-03-08T01:20:05;27.02;;;23.35;;
4547;SDS011;2286;51.570;7.090;2024-03-08T01:22:36;32.92;;;24.88;;
4547;SDS011;2286;51.570;7.090;2024-03-08T01:25:03;33.50;;;27.33;;
4547;SDS011;2286;51.570;7.090;2024-03-08T01:27:31;31.15;;;24.52;;
4547;SDS011;2286;51.570;7.090;2024-03-08T01:29:58;29.27;;;25.07;;
4547;SDS011;2286;51.570;7.090;2024-03-08T01:32:25;30.25;;;25.20;;
4547;SDS011;2286;51.570;7.090;2024-03-08T01:34:52;29.60;;;24.60;;
4547;SDS011;2286;51.570;7.090;2024-03-08T01:37:19;30.60;;;25.75;;
4547;SDS011;2286;51.570;7.090;2024-03-08T01:39:46;31.40;;;24.50;;
4547;SDS011;2286;51.570;7.090;2024-03-08T01:42:13;30.73;;;24.98;;
4547;SDS011;2286;51.570;7.090;2024-03-08T01:44:42;28.50;;;24.27;;
4547;SDS011;2286;51.570;7.090;2024-03-08T01:47:11;31.05;;;25.42;;
4547;SDS011;2286;51.570;7.090;2024-03-08T01:49:38;29.13;;;24.70;;
4547;SDS011;2286;51.570;7.090;2024-03-08T01:52:05;30.58;;;26.45;;
4547;SDS011;2286;51.570;7.090;2024-03-08T01:54:32;31.33;;;25.60;;
4547;SDS011;2286;51.570;7.090;2024-03-08T01:57:00;36.00;;;25.27;;
4547;SDS011;2286;51.570;7.090;2024-03-08T01:59:27;31.95;;;26.30;;
4547;SDS011;2286;51.570;7.090;2024-03-08T02:01:55;29.50;;;25.17;;
4547;SDS011;2286;51.570;7.090;2024-03-08T02:04:27;31.17;;;26.85;;
4547;SDS011;2286;51.570;7.090;2024-03-08T02:06:55;32.75;;;26.38;;
4547;SDS011;2286;51.570;7.090;2024-03-08T02:09:23;38.55;;;28.02;;
4547;SDS011;2286;51.570;7.090;2024-03-08T02:11:51;34.33;;;25.70;;
4547;SDS011;2286;51.570;7.090;2024-03-08T02:14:19;33.83;;;26.25;;
4547;SDS011;2286;51.570;7.090;2024-03-08T02:16:46;32.35;;;26.33;;
4547;SDS011;2286;51.570;7.090;2024-03-08T02:19:13;34.33;;;26.55;;
4547;SDS011;2286;51.570;7.090;2024-03-08T02:21:41;33.38;;;26.30;;
4547;SDS011;2286;51.570;7.090;2024-03-08T02:24:12;33.63;;;26.02;;
4547;SDS011;2286;51.570;7.090;2024-03-08T02:26:39;34.33;;;25.80;;
4547;SDS011;2286;51.570;7.090;2024-03-08T02:29:07;33.38;;;25.65;;
4547;SDS011;2286;51.570;7.090;2024-03-08T02:31:34;34.55;;;27.30;;
4547;SDS011;2286;51.570;7.090;2024-03-08T02:34:01;34.13;;;26.88;;
4547;SDS011;2286;51.570;7.090;2024-03-08T02:36:28;30.92;;;26.50;;
4547;SDS011;2286;51.570;7.090;2024-03-08T02:38:56;33.55;;;25.90;;
4547;SDS011;2286;51.570;7.090;2024-03-08T02:41:23;29.77;;;24.70;;
4547;SDS011;2286;51.570;7.090;2024-03-08T02:43:50;32.63;;;26.25;;
4547;SDS011;2286;51.570;7.090;2024-03-08T02:46:17;31.92;;;27.27;;
4547;SDS011;2286;51.570;7.090;2024-03-08T02:48:45;31.52;;;25.80;;
4547;SDS011;2286;51.570;7.090;2024-03-08T02:51:12;32.92;;;27.35;;
4547;SDS011;2286;51.570;7.090;2024-03-08T02:53:41;37.85;;;28.90;;
4547;SDS011;2286;51.570;7.090;2024-03-08T02:56:10;34.40;;;27.27;;
4547;SDS011;2286;51.570;7.090;2024-03-08T02:58:38;33.83;;;27.38;;
4547;SDS011;2286;51.570;7.090;2024-03-08T03:01:05;31.40;;;25.55;;
4547;SDS011;2286;51.570;7.090;2024-03-08T03:03:32;32.85;;;26.92;;
4547;SDS011;2286;51.570;7.090;2024-03-08T03:05:59;34.25;;;28.02;;
4547;SDS011;2286;51.570;7.090;2024-03-08T03:08:26;31.40;;;26.42;;
4547;SDS011;2286;51.570;7.090;2024-03-08T03:10:53;33.70;;;26.85;;
4547;SDS011;2286;51.570;7.090;2024-03-08T03:13:23;36.55;;;27.50;;
4547;SDS011;2286;51.570;7.090;2024-03-08T03:15:50;37.22;;;28.50;;
4547;SDS011;2286;51.570;7.090;2024-03-08T03:18:17;32.83;;;27.10;;
4547;SDS011;2286;51.570;7.090;2024-03-08T03:20:46;37.03;;;27.48;;
4547;SDS011;2286;51.570;7.090;2024-03-08T03:23:14;37.70;;;27.73;;
4547;SDS011;2286;51.570;7.090;2024-03-08T03:25:45;35.28;;;25.55;;
4547;SDS011;2286;51.570;7.090;2024-03-08T03:28:12;37.00;;;26.25;;
4547;SDS011;2286;51.570;7.090;2024-03-08T03:30:44;39.97;;;27.38;;
4547;SDS011;2286;51.570;7.090;2024-03-08T03:33:12;31.50;;;26.33;;
4547;SDS011;2286;51.570;7.090;2024-03-08T03:35:40;32.20;;;27.65;;
4547;SDS011;2286;51.570;7.090;2024-03-08T03:38:08;34.35;;;27.48;;
4547;SDS011;2286;51.570;7.090;2024-03-08T03:40:35;34.50;;;27.50;;
4547;SDS011;2286;51.570;7.090;2024-03-08T03:43:03;39.60;;;29.42;;
4547;SDS011;2286;51.570;7.090;2024-03-08T03:45:31;36.53;;;28.08;;
4547;SDS011;2286;51.570;7.090;2024-03-08T03:48:01;34.53;;;27.15;;
4547;SDS011;2286;51.570;7.090;2024-03-08T03:50:29;38.05;;;28.17;;
4547;SDS011;2286;51.570;7.090;2024-03-08T03:52:59;34.83;;;27.45;;
4547;SDS011;2286;51.570;7.090;2024-03-08T03:55:27;37.35;;;29.92;;
4547;SDS011;2286;51.570;7.090;2024-03-08T03:57:54;37.53;;;27.42;;
4547;SDS011;2286;51.570;7.090;2024-03-08T04:00:23;36.88;;;27.92;;
4547;SDS011;2286;51.570;7.090;2024-03-08T04:02:52;36.63;;;26.98;;
4547;SDS011;2286;51.570;7.090;2024-03-08T04:05:21;34.75;;;29.55;;
4547;SDS011;2286;51.570;7.090;2024-03-08T04:07:49;36.03;;;28.23;;
4547;SDS011;2286;51.570;7.090;2024-03-08T04:10:16;35.80;;;29.20;;
4547;SDS011;2286;51.570;7.090;2024-03-08T04:12:43;37.42;;;29.20;;
4547;SDS011;2286;51.570;7.090;2024-03-08T04:15:12;35.78;;;28.38;;
4547;SDS011;2286;51.570;7.090;2024-03-08T04:17:40;35.00;;;28.48;;
4547;SDS011;2286;51.570;7.090;2024-03-08T04:20:07;36.13;;;27.63;;
4547;SDS011;2286;51.570;7.090;2024-03-08T04:22:37;33.53;;;26.27;;
4547;SDS011;2286;51.570;7.090;2024-03-08T04:25:05;38.25;;;29.10;;
4547;SDS011;2286;51.570;7.090;2024-03-08T04:27:35;41.65;;;29.13;;
4547;SDS011;2286;51.570;7.090;2024-03-08T04:30:02;39.10;;;28.85;;
4547;SDS011;2286;51.570;7.090;2024-03-08T04:32:32;38.80;;;29.63;;
4547;SDS011;2286;51.570;7.090;2024-03-08T04:34:59;35.88;;;29.42;;
4547;SDS011;2286;51.570;7.090;2024-03-08T04:37:28;38.95;;;28.90;;
4547;SDS011;2286;51.570;7.090;2024-03-08T04:39:57;36.38;;;29.05;;
4547;SDS011;2286;51.570;7.090;2024-03-08T04:42:24;37.92;;;28.92;;
4547;SDS011;2286;51.570;7.090;2024-03-08T04:44:53;39.28;;;29.80;;
4547;SDS011;2286;51.570;7.090;2024-03-08T04:47:21;46.03;;;31.38;;
4547;SDS011;2286;51.570;7.090;2024-03-08T04:49:48;40.50;;;30.42;;
4547;SDS011;2286;51.570;7.090;2024-03-08T04:52:16;37.63;;;29.77;;
4547;SDS011;2286;51.570;7.090;2024-03-08T04:54:43;41.83;;;30.20;;
4547;SDS011;2286;51.570;7.090;2024-03-08T04:57:13;42.47;;;30.60;;
4547;SDS011;2286;51.570;7.090;2024-03-08T04:59:40;40.33;;;30.15;;
4547;SDS011;2286;51.570;7.090;2024-03-08T05:02:07;38.53;;;29.55;;
4547;SDS011;2286;51.570;7.090;2024-03-08T05:04:34;43.00;;;32.95;;
4547;SDS011;2286;51.570;7.090;2024-03-08T05:07:01;42.75;;;29.38;;
4547;SDS011;2286;51.570;7.090;2024-03-08T05:09:29;41.50;;;31.23;;
4547;SDS011;2286;51.570;7.090;2024-03-08T05:11:57;44.10;;;32.50;;
4547;SDS011;2286;51.570;7.090;2024-03-08T05:14:26;44.20;;;32.60;;
4547;SDS011;2286;51.570;7.090;2024-03-08T05:16:53;42.38;;;32.08;;
4547;SDS011;2286;51.570;7.090;2024-03-08T05:19:20;39.33;;;29.75;;
4547;SDS011;2286;51.570;7.090;2024-03-08T05:21:48;45.08;;;32.38;;
4547;SDS011;2286;51.570;7.090;2024-03-08T05:24:16;38.90;;;29.65;;
4547;SDS011;2286;51.570;7.090;2024-03-08T05:26:44;41.65;;;31.08;;
4547;SDS011;2286;51.570;7.090;2024-03-08T05:29:12;39.83;;;31.05;;
4547;SDS011;2286;51.570;7.090;2024-03-08T05:31:45;43.03;;;32.08;;
4547;SDS011;2286;51.570;7.090;2024-03-08T05:34:14;43.72;;;32.38;;
4547;SDS011;2286;51.570;7.090;2024-03-08T05:36:41;45.63;;;32.28;;
4547;SDS011;2286;51.570;7.090;2024-03-08T05:39:09;41.28;;;29.52;;
4547;SDS011;2286;51.570;7.090;2024-03-08T05:41:37;42.10;;;32.90;;
4547;SDS011;2286;51.570;7.090;2024-03-08T05:44:05;45.00;;;33.38;;
4547;SDS011;2286;51.570;7.090;2024-03-08T05:46:32;47.10;;;33.53;;
4547;SDS011;2286;51.570;7.090;2024-03-08T05:52:11;44.30;;;33.30;;
4547;SDS011;2286;51.570;7.090;2024-03-08T05:54:39;42.22;;;32.22;;
4547;SDS011;2286;51.570;7.090;2024-03-08T05:57:08;42.72;;;32.83;;
4547;SDS011;2286;51.570;7.090;2024-03-08T05:59:36;44.90;;;31.90;;
4547;SDS011;2286;51.570;7.090;2024-03-08T06:02:03;45.42;;;33.78;;
4547;SDS011;2286;51.570;7.090;2024-03-08T06:04:30;46.88;;;33.25;;
4547;SDS011;2286;51.570;7.090;2024-03-08T06:06:59;42.05;;;31.30;;
4547;SDS011;2286;51.570;7.090;2024-03-08T06:09:29;47.42;;;31.70;;
4547;SDS011;2286;51.570;7.090;2024-03-08T06:11:57;42.42;;;31.45;;
4547;SDS011;2286;51.570;7.090;2024-03-08T06:14:24;43.40;;;33.05;;
4547;SDS011;2286;51.570;7.090;2024-03-08T06:16:51;43.42;;;32.22;;
4547;SDS011;2286;51.570;7.090;2024-03-08T06:19:20;45.85;;;33.92;;
4547;SDS011;2286;51.570;7.090;2024-03-08T06:21:47;46.13;;;33.30;;
4547;SDS011;2286;51.570;7.090;2024-03-08T06:24:16;45.10;;;33.85;;
4547;SDS011;2286;51.570;7.090;2024-03-08T06:26:44;47.83;;;33.95;;
4547;SDS011;2286;51.570;7.090;2024-03-08T06:29:12;46.47;;;34.40;;
4547;SDS011;2286;51.570;7.090;2024-03-08T06:31:40;44.28;;;32.88;;
4547;SDS011;2286;51.570;7.090;2024-03-08T06:34:07;45.75;;;31.25;;
4547;SDS011;2286;51.570;7.090;2024-03-08T06:36:35;50.08;;;33.95;;
4547;SDS011;2286;51.570;7.090;2024-03-08T06:39:03;47.40;;;34.50;;
4547;SDS011;2286;51.570;7.090;2024-03-08T06:41:47;42.67;;;32.30;;
4547;SDS011;2286;51.570;7.090;2024-03-08T06:44:17;48.08;;;32.20;;
4547;SDS011;2286;51.570;7.090;2024-03-08T06:46:46;40.47;;;31.35;;
4547;SDS011;2286;51.570;7.090;2024-03-08T06:49:14;46.35;;;33.22;;
4547;SDS011;2286;51.570;7.090;2024-03-08T06:51:42;38.13;;;30.52;;
4547;SDS011;2286;51.570;7.090;2024-03-08T06:54:11;43.83;;;32.65;;
4547;SDS011;2286;51.570;7.090;2024-03-08T06:56:38;43.13;;;30.65;;
4547;SDS011;2286;51.570;7.090;2024-03-08T06:59:07;42.63;;;32.95;;
4547;SDS011;2286;51.570;7.090;2024-03-08T07:04:11;44.38;;;32.65;;
4547;SDS011;2286;51.570;7.090;2024-03-08T07:06:39;45.88;;;32.17;;
4547;SDS011;2286;51.570;7.090;2024-03-08T07:09:06;44.65;;;31.73;;
4547;SDS011;2286;51.570;7.090;2024-03-08T07:11:34;48.17;;;32.17;;
4547;SDS011;2286;51.570;7.090;2024-03-08T07:14:02;42.22;;;32.10;;
4547;SDS011;2286;51.570;7.090;2024-03-08T07:16:32;43.35;;;32.83;;
4547;SDS011;2286;51.570;7.090;2024-03-08T07:19:00;44.65;;;30.98;;
4547;SDS011;2286;51.570;7.090;2024-03-08T07:21:28;40.97;;;31.20;;
4547;SDS011;2286;51.570;7.090;2024-03-08T07:23:55;38.50;;;31.00;;
4547;SDS011;2286;51.570;7.090;2024-03-08T07:26:38;44.28;;;31.77;;
4547;SDS011;2286;51.570;7.090;2024-03-08T07:29:05;41.75;;;31.35;;
4547;SDS011;2286;51.570;7.090;2024-03-08T07:31:34;40.28;;;31.52;;
4547;SDS011;2286;51.570;7.090;2024-03-08T07:34:15;43.03;;;31.80;;
4547;SDS011;2286;51.570;7.090;2024-03-08T07:36:42;37.78;;;29.98;;
4547;SDS011;2286;51.570;7.090;2024-03-08T07:39:10;37.63;;;30.40;;
4547;SDS011;2286;51.570;7.090;2024-03-08T07:41:39;39.10;;;30.25;;
4547;SDS011;2286;51.570;7.090;2024-03-08T07:44:06;37.33;;;30.52;;
4547;SDS011;2286;51.570;7.090;2024-03-08T07:46:35;37.38;;;30.08;;
4547;SDS011;2286;51.570;7.090;2024-03-08T07:49:03;40.53;;;29.33;;
4547;SDS011;2286;51.570;7.090;2024-03-08T07:51:36;40.45;;;31.58;;
4547;SDS011;2286;51.570;7.090;2024-03-08T07:54:04;35.88;;;29.63;;
4547;SDS011;2286;51.570;7.090;2024-03-08T07:56:32;35.25;;;29.02;;
4547;SDS011;2286;51.570;7.090;2024-03-08T07:59:01;42.15;;;32.60;;
4547;SDS011;2286;51.570;7.090;2024-03-08T08:01:29;36.45;;;28.35;;
4547;SDS011;2286;51.570;7.090;2024-03-08T08:03:58;36.90;;;28.20;;
4547;SDS011;2286;51.570;7.090;2024-03-08T08:06:26;33.63;;;27.30;;
4547;SDS011;2286;51.570;7.090;2024-03-08T08:08:57;35.50;;;28.17;;
4547;SDS011;2286;51.570;7.090;2024-03-08T08:11:25;38.97;;;29.58;;
4547;SDS011;2286;51.570;7.090;2024-03-08T08:13:54;33.28;;;27.08;;
4547;SDS011;2286;51.570;7.090;2024-03-08T08:16:22;36.05;;;27.45;;
4547;SDS011;2286;51.570;7.090;2024-03-08T08:18:50;36.97;;;28.75;;
4547;SDS011;2286;51.570;7.090;2024-03-08T08:21:19;36.05;;;29.23;;
4547;SDS011;2286;51.570;7.090;2024-03-08T08:23:47;43.30;;;29.15;;
4547;SDS011;2286;51.570;7.090;2024-03-08T08:26:14;31.02;;;26.88;;
4547;SDS011;2286;51.570;7.090;2024-03-08T08:28:42;32.33;;;25.50;;
4547;SDS011;2286;51.570;7.090;2024-03-08T08:31:11;32.88;;;27.60;;
4547;SDS011;2286;51.570;7.090;2024-03-08T08:33:38;32.70;;;27.33;;
4547;SDS011;2286;51.570;7.090;2024-03-08T08:36:05;34.13;;;27.70;;
4547;SDS011;2286;51.570;7.090;2024-03-08T08:38:35;34.43;;;26.30;;
4547;SDS011;2286;51.570;7.090;2024-03-08T08:41:02;28.58;;;24.80;;
4547;SDS011;2286;51.570;7.090;2024-03-08T08:43:31;26.43;;;23.60;;
4547;SDS011;2286;51.570;7.090;2024-03-08T08:45:58;26.90;;;22.23;;
4547;SDS011;2286;51.570;7.090;2024-03-08T08:48:26;30.52;;;24.75;;
4547;SDS011;2286;51.570;7.090;2024-03-08T08:50:54;31.60;;;25.40;;
4547;SDS011;2286;51.570;7.090;2024-03-08T08:53:21;30.50;;;24.53;;
4547;SDS011;2286;51.570;7.090;2024-03-08T08:55:50;31.27;;;25.60;;
4547;SDS011;2286;51.570;7.090;2024-03-08T08:58:18;30.10;;;26.07;;
4547;SDS011;2286;51.570;7.090;2024-03-08T09:00:45;28.97;;;23.30;;
4547;SDS011;2286;51.570;7.090;2024-03-08T09:03:12;30.10;;;24.53;;
4547;SDS011;2286;51.570;7.090;2024-03-08T09:05:39;29.53;;;25.20;;
4547;SDS011;2286;51.570;7.090;2024-03-08T09:08:07;30.93;;;24.53;;
4547;SDS011;2286;51.570;7.090;2024-03-08T09:10:35;28.40;;;25.07;;
4547;SDS011;2286;51.570;7.090;2024-03-08T09:13:05;26.07;;;22.23;;
4547;SDS011;2286;51.570;7.090;2024-03-08T09:15:35;29.50;;;22.40;;
4547;SDS011;2286;51.570;7.090;2024-03-08T09:18:05;24.60;;;22.00;;
4547;SDS011;2286;51.570;7.090;2024-03-08T09:20:33;25.43;;;21.93;;
4547;SDS011;2286;51.570;7.090;2024-03-08T09:23:00;25.87;;;22.23;;
4547;SDS011;2286;51.570;7.090;2024-03-08T09:25:27;27.17;;;22.50;;
4547;SDS011;2286;51.570;7.090;2024-03-08T09:27:54;23.17;;;20.77;;
4547;SDS011;2286;51.570;7.090;2024-03-08T09:30:23;23.50;;;21.00;;
4547;SDS011;2286;51.570;7.090;2024-03-08T09:32:50;24.37;;;21.80;;
4547;SDS011;2286;51.570;7.090;2024-03-08T09:35:17;25.10;;;21.97;;
4547;SDS011;2286;51.570;7.090;2024-03-08T09:37:44;23.57;;;21.00;;
4547;SDS011;2286;51.570;7.090;2024-03-08T09:40:13;24.07;;;21.20;;
4547;SDS011;2286;51.570;7.090;2024-03-08T09:42:40;25.83;;;21.53;;
4547;SDS011;2286;51.570;7.090;2024-03-08T09:45:08;22.63;;;20.20;;
4547;SDS011;2286;51.570;7.090;2024-03-08T09:47:38;25.40;;;20.43;;
4547;SDS011;2286;51.570;7.090;2024-03-08T09:50:07;25.77;;;20.47;;
4547;SDS011;2286;51.570;7.090;2024-03-08T09:52:35;23.33;;;20.33;;
4547;SDS011;2286;51.570;7.090;2024-03-08T09:55:04;25.77;;;20.20;;
4547;SDS011;2286;51.570;7.090;2024-03-08T09:57:32;23.30;;;19.10;;
4547;SDS011;2286;51.570;7.090;2024-03-08T09:59:59;25.43;;;18.37;;
4547;SDS011;2286;51.570;7.090;2024-03-08T10:02:27;19.67;;;16.53;;
4547;SDS011;2286;51.570;7.090;2024-03-08T10:04:56;21.30;;;17.17;;
4547;SDS011;2286;51.570;7.090;2024-03-08T10:07:24;20.80;;;18.23;;
4547;SDS011;2286;51.570;7.090;2024-03-08T10:09:51;20.93;;;17.80;;
4547;SDS011;2286;51.570;7.090;2024-03-08T10:12:19;21.00;;;18.37;;
4547;SDS011;2286;51.570;7.090;2024-03-08T10:14:46;19.13;;;17.00;;
4547;SDS011;2286;51.570;7.090;2024-03-08T10:17:13;19.90;;;17.80;;
4547;SDS011;2286;51.570;7.090;2024-03-08T10:19:48;20.33;;;15.93;;
4547;SDS011;2286;51.570;7.090;2024-03-08T10:22:18;21.47;;;16.97;;
4547;SDS011;2286;51.570;7.090;2024-03-08T10:24:45;19.87;;;16.17;;
4547;SDS011;2286;51.570;7.090;2024-03-08T10:27:13;20.53;;;16.73;;
4547;SDS011;2286;51.570;7.090;2024-03-08T10:29:41;20.10;;;16.80;;
4547;SDS011;2286;51.570;7.090;2024-03-08T10:32:09;19.53;;;17.27;;
4547;SDS011;2286;51.570;7.090;2024-03-08T10:34:37;19.93;;;17.97;;
4547;SDS011;2286;51.570;7.090;2024-03-08T10:37:04;19.70;;;16.70;;
4547;SDS011;2286;51.570;7.090;2024-03-08T10:39:36;20.77;;;16.70;;
4547;SDS011;2286;51.570;7.090;2024-03-08T10:42:04;20.10;;;17.47;;
4547;SDS011;2286;51.570;7.090;2024-03-08T10:44:44;18.43;;;16.53;;
4547;SDS011;2286;51.570;7.090;2024-03-08T10:47:22;19.43;;;17.30;;
4547;SDS011;2286;51.570;7.090;2024-03-08T10:49:58;19.40;;;17.47;;
4547;SDS011;2286;51.570;7.090;2024-03-08T10:52:43;18.30;;;16.40;;
4547;SDS011;2286;51.570;7.090;2024-03-08T10:55:15;19.63;;;16.83;;
4547;SDS011;2286;51.570;7.090;2024-03-08T10:57:45;20.67;;;18.47;;
4547;SDS011;2286;51.570;7.090;2024-03-08T11:00:13;20.23;;;18.13;;
4547;SDS011;2286;51.570;7.090;2024-03-08T11:02:43;20.60;;;18.50;;
4547;SDS011;2286;51.570;7.090;2024-03-08T11:05:10;21.33;;;18.93;;
4547;SDS011;2286;51.570;7.090;2024-03-08T11:07:42;21.33;;;18.70;;
4547;SDS011;2286;51.570;7.090;2024-03-08T11:10:19;21.20;;;18.40;;
4547;SDS011;2286;51.570;7.090;2024-03-08T11:12:47;20.17;;;18.17;;
4547;SDS011;2286;51.570;7.090;2024-03-08T11:15:14;21.17;;;17.20;;
4547;SDS011;2286;51.570;7.090;2024-03-08T11:17:48;22.37;;;19.13;;
4547;SDS011;2286;51.570;7.090;2024-03-08T11:20:20;20.73;;;18.53;;
4547;SDS011;2286;51.570;7.090;2024-03-08T11:22:50;20.27;;;18.23;;
4547;SDS011;2286;51.570;7.090;2024-03-08T11:25:33;22.03;;;19.83;;
4547;SDS011;2286;51.570;7.090;2024-03-08T11:28:14;21.47;;;19.37;;
4547;SDS011;2286;51.570;7.090;2024-03-08T11:30:46;19.80;;;17.80;;
4547;SDS011;2286;51.570;7.090;2024-03-08T11:33:34;18.60;;;16.70;;
4547;SDS011;2286;51.570;7.090;2024-03-08T11:36:02;21.33;;;19.13;;
4547;SDS011;2286;51.570;7.090;2024-03-08T11:38:39;19.30;;;17.40;;
4547;SDS011;2286;51.570;7.090;2024-03-08T11:41:08;19.13;;;17.00;;
4547;SDS011;2286;51.570;7.090;2024-03-08T11:43:39;19.00;;;17.20;;
4547;SDS011;2286;51.570;7.090;2024-03-08T11:46:09;20.00;;;18.03;;
4547;SDS011;2286;51.570;7.090;2024-03-08T11:48:37;19.97;;;17.97;;
4547;SDS011;2286;51.570;7.090;2024-03-08T11:51:06;20.43;;;18.30;;
4547;SDS011;2286;51.570;7.090;2024-03-08T11:53:35;19.67;;;17.83;;
4547;SDS011;2286;51.570;7.090;2024-03-08T11:56:06;18.10;;;16.20;;
4547;SDS011;2286;51.570;7.090;2024-03-08T11:58:36;19.60;;;17.70;;
4547;SDS011;2286;51.570;7.090;2024-03-08T12:01:04;19.40;;;17.00;;
4547;SDS011;2286;51.570;7.090;2024-03-08T12:03:32;17.97;;;16.37;;
4547;SDS011;2286;51.570;7.090;2024-03-08T12:06:00;19.43;;;17.50;;
4547;SDS011;2286;51.570;7.090;2024-03-08T12:08:30;18.77;;;17.03;;
4547;SDS011;2286;51.570;7.090;2024-03-08T12:10:57;21.10;;;19.10;;
4547;SDS011;2286;51.570;7.090;2024-03-08T12:13:27;21.43;;;17.80;;
4547;SDS011;2286;51.570;7.090;2024-03-08T12:15:56;20.00;;;18.10;;
4547;SDS011;2286;51.570;7.090;2024-03-08T12:18:24;19.03;;;17.17;;
4547;SDS011;2286;51.570;7.090;2024-03-08T12:21:03;19.87;;;17.90;;
4547;SDS011;2286;51.570;7.090;2024-03-08T12:23:32;18.90;;;17.13;;
4547;SDS011;2286;51.570;7.090;2024-03-08T12:26:08;17.37;;;15.50;;
4547;SDS011;2286;51.570;7.090;2024-03-08T12:28:39;18.17;;;16.57;;
4547;SDS011;2286;51.570;7.090;2024-03-08T12:31:07;17.67;;;15.90;;
4547;SDS011;2286;51.570;7.090;2024-03-08T12:33:36;17.77;;;16.13;;
4547;SDS011;2286;51.570;7.090;2024-03-08T12:36:04;19.13;;;17.33;;
4547;SDS011;2286;51.570;7.090;2024-03-08T12:38:32;18.47;;;16.77;;
4547;SDS011;2286;51.570;7.090;2024-03-08T12:41:01;19.20;;;17.30;;
4547;SDS011;2286;51.570;7.090;2024-03-08T12:43:28;18.20;;;16.60;;
4547;SDS011;2286;51.570;7.090;2024-03-08T12:45:58;16.03;;;14.70;;
4547;SDS011;2286;51.570;7.090;2024-03-08T12:48:25;15.70;;;14.30;;
4547;SDS011;2286;51.570;7.090;2024-03-08T12:50:52;17.47;;;15.80;;
4547;SDS011;2286;51.570;7.090;2024-03-08T12:53:19;17.47;;;15.80;;
4547;SDS011;2286;51.570;7.090;2024-03-08T12:55:48;16.67;;;15.17;;
4547;SDS011;2286;51.570;7.090;2024-03-08T12:58:15;16.77;;;15.20;;
4547;SDS011;2286;51.570;7.090;2024-03-08T13:00:43;17.07;;;15.47;;
4547;SDS011;2286;51.570;7.090;2024-03-08T13:03:11;16.33;;;14.77;;
4547;SDS011;2286;51.570;7.090;2024-03-08T13:05:39;15.30;;;13.90;;
4547;SDS011;2286;51.570;7.090;2024-03-08T13:08:07;11.13;;;10.23;;
4547;SDS011;2286;51.570;7.090;2024-03-08T13:10:37;11.47;;;10.17;;
4547;SDS011;2286;51.570;7.090;2024-03-08T13:13:05;13.50;;;10.00;;
4547;SDS011;2286;51.570;7.090;2024-03-08T13:15:32;10.70;;;9.80;;
4547;SDS011;2286;51.570;7.090;2024-03-08T13:17:59;10.47;;;9.47;;
4547;SDS011;2286;51.570;7.090;2024-03-08T13:20:27;11.10;;;10.20;;
4547;SDS011;2286;51.570;7.090;2024-03-08T13:22:55;10.90;;;10.00;;
4547;SDS011;2286;51.570;7.090;2024-03-08T13:25:24;11.10;;;10.20;;
4547;SDS011;2286;51.570;7.090;2024-03-08T13:27:51;11.27;;;10.13;;
4547;SDS011;2286;51.570;7.090;2024-03-08T13:30:21;11.40;;;10.40;;
4547;SDS011;2286;51.570;7.090;2024-03-08T13:32:51;11.43;;;10.43;;
4547;SDS011;2286;51.570;7.090;2024-03-08T13:35:19;13.40;;;12.20;;
4547;SDS011;2286;51.570;7.090;2024-03-08T13:37:51;13.20;;;12.00;;
4547;SDS011;2286;51.570;7.090;2024-03-08T13:40:18;14.30;;;11.77;;
4547;SDS011;2286;51.570;7.090;2024-03-08T13:42:46;13.70;;;11.90;;
4547;SDS011;2286;51.570;7.090;2024-03-08T13:45:14;12.93;;;11.73;;
4547;SDS011;2286;51.570;7.090;2024-03-08T13:47:43;12.73;;;11.63;;
4547;SDS011;2286;51.570;7.090;2024-03-08T13:50:11;14.33;;;12.10;;
4547;SDS011;2286;51.570;7.090;2024-03-08T13:52:41;11.73;;;10.70;;
4547;SDS011;2286;51.570;7.090;2024-03-08T13:55:10;13.80;;;12.50;;
4547;SDS011;2286;51.570;7.090;2024-03-08T13:57:38;14.03;;;12.73;;
4547;SDS011;2286;51.570;7.090;2024-03-08T14:00:05;13.90;;;12.63;;
4547;SDS011;2286;51.570;7.090;2024-03-08T14:02:33;14.00;;;12.70;;
4547;SDS011;2286;51.570;7.090;2024-03-08T14:05:00;13.47;;;12.10;;
4547;SDS011;2286;51.570;7.090;2024-03-08T14:07:28;13.67;;;12.50;;
4547;SDS011;2286;51.570;7.090;2024-03-08T14:09:55;13.50;;;12.27;;
4547;SDS011;2286;51.570;7.090;2024-03-08T14:12:24;14.10;;;12.60;;
4547;SDS011;2286;51.570;7.090;2024-03-08T14:14:51;15.00;;;13.73;;
4547;SDS011;2286;51.570;7.090;2024-03-08T14:17:18;13.90;;;12.60;;
4547;SDS011;2286;51.570;7.090;2024-03-08T14:19:45;13.80;;;12.57;;
4547;SDS011;2286;51.570;7.090;2024-03-08T14:22:12;14.00;;;12.80;;
4547;SDS011;2286;51.570;7.090;2024-03-08T14:24:40;14.00;;;12.70;;
4547;SDS011;2286;51.570;7.090;2024-03-08T14:27:08;13.83;;;12.70;;
4547;SDS011;2286;51.570;7.090;2024-03-08T14:29:38;14.63;;;13.17;;
4547;SDS011;2286;51.570;7.090;2024-03-08T14:32:05;14.27;;;12.97;;
4547;SDS011;2286;51.570;7.090;2024-03-08T14:34:33;14.23;;;13.03;;
4547;SDS011;2286;51.570;7.090;2024-03-08T14:37:00;14.63;;;13.13;;
4547;SDS011;2286;51.570;7.090;2024-03-08T14:39:30;15.67;;;14.00;;
4547;SDS011;2286;51.570;7.090;2024-03-08T14:42:00;14.47;;;13.20;;
4547;SDS011;2286;51.570;7.090;2024-03-08T14:44:28;13.80;;;12.50;;
4547;SDS011;2286;51.570;7.090;2024-03-08T14:46:57;14.90;;;13.50;;
4547;SDS011;2286;51.570;7.090;2024-03-08T14:49:25;14.67;;;13.27;;
4547;SDS011;2286;51.570;7.090;2024-03-08T14:51:54;16.50;;;14.70;;
4547;SDS011;2286;51.570;7.090;2024-03-08T14:54:23;14.60;;;13.30;;
4547;SDS011;2286;51.570;7.090;2024-03-08T14:56:51;16.20;;;14.63;;
4547;SDS011;2286;51.570;7.090;2024-03-08T14:59:20;16.80;;;14.97;;
4547;SDS011;2286;51.570;7.090;2024-03-08T15:01:48;18.60;;;16.70;;